Time;durP1;ratioP1;P1;durP2;ratioP2;P2;SDS_P1;SDS_P2;PMS_P1;PMS_P2;Temp;Humidity;BMP_temperature;BMP_pressure;BME280_temperature;BME280_humidity;BME280_pressure;Samples;Min_cycle;Max_cycle;Signal;HPM_P1;HPM_P2
2021/04/19 00:01:05;;;;;;;1999.90;999.90;;;10.20;99.90;;;;;;5013975;28;20212;-67
2021/04/19 00:03:31;;;;;;;1999.90;999.90;;;10.20;99.90;;;;;;5013924;28;20183;-67
2021/04/19 00:05:58;;;;;;;1999.90;999.90;;;10.30;99.90;;;;;;5014362;28;20417;-67
2021/04/19 00:08:23;;;;;;;1999.90;999.90;;;10.40;99.90;;;;;;5019846;28;20998;-66
2021/04/19 00:10:49;;;;;;;1999.90;999.90;;;10.50;99.90;;;;;;5012638;28;20500;-67
2021/04/19 00:13:15;;;;;;;1999.90;999.90;;;10.50;99.90;;;;;;5013847;28;20508;-66
2021/04/19 00:15:41;;;;;;;1999.90;999.90;;;10.50;99.90;;;;;;5013476;28;20411;-68
2021/04/19 00:18:07;;;;;;;1999.90;999.90;;;10.50;99.90;;;;;;5013591;28;20963;-67
2021/04/19 00:20:33;;;;;;;1999.90;999.90;;;10.50;99.90;;;;;;5015479;28;20175;-67
2021/04/19 00:22:58;;;;;;;1999.90;999.90;;;10.40;99.90;;;;;;5017545;28;20980;-68
2021/04/19 00:25:24;;;;;;;1999.90;999.90;;;10.50;99.90;;;;;;5013223;28;20176;-67
2021/04/19 00:27:50;;;;;;;1999.90;999.90;;;10.40;99.90;;;;;;5013372;28;20214;-67
2021/04/19 00:30:17;;;;;;;1999.90;999.90;;;10.50;99.90;;;;;;5017635;28;20434;-66
2021/04/19 00:32:43;;;;;;;1999.90;999.90;;;10.40;99.90;;;;;;5013384;28;20403;-66
2021/04/19 00:35:09;;;;;;;1999.90;999.90;;;10.40;99.90;;;;;;5012332;28;20919;-66
2021/04/19 00:37:35;;;;;;;1999.90;999.90;;;10.40;99.90;;;;;;5015311;28;20192;-66
2021/04/19 00:40:13;;;;;;;1999.90;999.90;;;10.40;99.90;;;;;;5013332;28;20491;-66
2021/04/19 00:42:39;;;;;;;1999.90;999.90;;;10.30;99.90;;;;;;5013281;28;20408;-68
2021/04/19 00:45:06;;;;;;;1999.90;999.90;;;10.30;99.90;;;;;;5014654;28;20442;-68
2021/04/19 00:47:33;;;;;;;1999.90;999.90;;;10.30;99.90;;;;;;5013345;28;20455;-67
2021/04/19 00:49:59;;;;;;;1999.90;999.90;;;10.20;99.90;;;;;;5013151;28;20433;-66
2021/04/19 00:52:26;;;;;;;1999.90;999.90;;;10.20;99.90;;;;;;5015652;28;20470;-68
2021/04/19 00:54:51;;;;;;;1999.90;999.90;;;10.20;99.90;;;;;;5016628;28;20168;-66
2021/04/19 00:57:17;;;;;;;1999.90;999.90;;;10.20;99.90;;;;;;5014177;28;20446;-67
2021/04/19 00:59:43;;;;;;;1999.90;999.90;;;10.20;99.90;;;;;;5014634;28;20638;-67
2021/04/19 01:02:09;;;;;;;1999.90;999.90;;;10.10;99.90;;;;;;5014911;28;20196;-67
2021/04/19 01:04:34;;;;;;;1999.90;999.90;;;10.10;99.90;;;;;;5014770;28;20202;-67
2021/04/19 01:07:00;;;;;;;1999.90;999.90;;;10.10;99.90;;;;;;5015570;28;20431;-66
2021/04/19 01:09:27;;;;;;;1999.90;999.90;;;10.10;99.90;;;;;;5012790;28;20766;-67
2021/04/19 01:11:53;;;;;;;1999.90;999.90;;;10.20;99.90;;;;;;5016018;28;20806;-68
2021/04/19 01:14:18;;;;;;;1999.90;999.90;;;10.10;99.90;;;;;;5016577;28;20427;-67
2021/04/19 01:16:44;;;;;;;1999.90;999.90;;;10.10;99.90;;;;;;5015925;28;20214;-68
2021/04/19 01:19:10;;;;;;;1999.90;999.90;;;10.10;99.90;;;;;;5014044;28;20180;-66
2021/04/19 01:21:35;;;;;;;1999.90;999.90;;;10.10;99.90;;;;;;5012677;28;20640;-67
2021/04/19 01:24:01;;;;;;;1999.90;999.90;;;10.00;99.90;;;;;;5012655;28;20184;-66
2021/04/19 01:26:27;;;;;;;1999.90;999.90;;;10.00;99.90;;;;;;5012147;28;20204;-66
2021/04/19 01:28:53;;;;;;;1999.90;999.90;;;10.00;99.90;;;;;;5014749;28;20325;-67
2021/04/19 01:31:19;;;;;;;1999.90;999.90;;;10.00;99.90;;;;;;5012890;28;20207;-67
2021/04/19 01:33:45;;;;;;;1999.90;999.90;;;10.00;99.90;;;;;;5012741;28;20436;-67
2021/04/19 01:36:11;;;;;;;1999.90;999.90;;;9.90;99.90;;;;;;5012032;28;20415;-66
2021/04/19 01:38:36;;;;;;;1999.90;999.90;;;9.90;99.90;;;;;;5014451;28;20174;-66
2021/04/19 01:41:02;;;;;;;1999.90;999.90;;;9.90;99.90;;;;;;5012461;28;20184;-66
2021/04/19 01:43:30;;;;;;;1999.90;999.90;;;9.90;99.90;;;;;;5012441;28;20175;-67
2021/04/19 01:45:55;;;;;;;1999.90;999.90;;;9.90;99.90;;;;;;5012577;28;20763;-68
2021/04/19 01:48:22;;;;;;;1999.90;999.90;;;9.90;99.90;;;;;;5015916;28;20461;-68
2021/04/19 01:50:49;;;;;;;1999.90;999.90;;;9.90;99.90;;;;;;5013605;28;20268;-67
2021/04/19 01:53:15;;;;;;;1999.90;999.90;;;9.90;99.90;;;;;;5014016;28;20439;-67
2021/04/19 01:55:41;;;;;;;1999.90;999.90;;;9.80;99.90;;;;;;5012882;28;20446;-66
2021/04/19 01:58:10;;;;;;;1999.90;999.90;;;9.80;99.90;;;;;;5012105;28;20834;-66
2021/04/19 02:00:38;;;;;;;1999.90;999.90;;;9.80;99.90;;;;;;5012189;28;20464;-67
2021/04/19 02:03:06;;;;;;;1999.90;999.90;;;9.70;99.90;;;;;;5012304;28;20420;-67
2021/04/19 02:05:53;;;;;;;1999.90;999.90;;;9.70;99.90;;;;;;5011877;28;20423;-67
2021/04/19 02:08:38;;;;;;;1999.90;999.90;;;9.60;99.90;;;;;;5012072;28;20465;-67
2021/04/19 02:11:24;;;;;;;1999.90;999.90;;;9.60;99.90;;;;;;5012035;28;20421;-67
2021/04/19 02:14:05;;;;;;;1999.90;999.90;;;9.60;99.90;;;;;;5012076;28;20417;-67
2021/04/19 02:16:59;;;;;;;1999.90;999.90;;;9.50;99.90;;;;;;5011725;28;20452;-68
2021/04/19 02:19:45;;;;;;;1999.90;999.90;;;9.50;99.90;;;;;;5012029;28;20903;-66
2021/04/19 02:22:16;;;;;;;1999.90;999.90;;;9.40;99.90;;;;;;5011593;28;20421;-66
2021/04/19 02:24:47;;;;;;;1999.90;999.90;;;9.40;99.90;;;;;;5011913;28;20410;-67
2021/04/19 02:27:26;;;;;;;1999.90;999.90;;;9.40;99.90;;;;;;5011775;28;20484;-66
2021/04/19 02:29:53;;;;;;;1999.90;999.90;;;9.40;99.90;;;;;;5011962;28;20849;-68
2021/04/19 02:32:33;;;;;;;1999.90;999.90;;;9.30;99.90;;;;;;5013132;28;20408;-67
2021/04/19 02:35:03;;;;;;;1999.90;999.90;;;9.40;99.90;;;;;;5012081;28;20445;-68
2021/04/19 02:37:31;;;;;;;1999.90;999.90;;;9.40;99.90;;;;;;5014486;28;20424;-68
2021/04/19 02:39:58;;;;;;;1999.90;999.90;;;9.40;99.90;;;;;;5014884;28;20439;-66
2021/04/19 02:42:24;;;;;;;1999.90;999.90;;;9.30;99.90;;;;;;5013672;28;20410;-66
2021/04/19 02:44:52;;;;;;;1999.90;999.90;;;9.30;99.90;;;;;;5011541;28;20418;-67
2021/04/19 02:47:21;;;;;;;1999.90;999.90;;;9.30;99.90;;;;;;5014949;28;20544;-68
2021/04/19 02:49:48;;;;;;;1999.90;999.90;;;9.10;99.90;;;;;;5015332;28;20424;-67
2021/04/19 02:52:15;;;;;;;1999.90;999.90;;;9.20;99.90;;;;;;5014072;28;20411;-67
2021/04/19 02:54:43;;;;;;;1999.90;999.90;;;9.20;99.90;;;;;;5011716;28;20474;-67
2021/04/19 02:57:29;;;;;;;1999.90;999.90;;;9.10;99.90;;;;;;5011509;28;20451;-67
2021/04/19 02:59:56;;;;;;;1999.90;999.90;;;9.10;99.90;;;;;;5014952;28;20472;-68
2021/04/19 03:02:25;;;;;;;1999.90;999.90;;;9.20;99.90;;;;;;5015144;28;20421;-66
2021/04/19 03:04:52;;;;;;;1999.90;999.90;;;9.20;99.90;;;;;;5015099;28;20409;-67
2021/04/19 03:07:21;;;;;;;1999.90;999.90;;;9.30;99.90;;;;;;5016205;28;20800;-67
2021/04/19 03:09:53;;;;;;;1999.90;999.90;;;9.30;99.90;;;;;;5015703;28;20493;-66
2021/04/19 03:12:24;;;;;;;1999.90;999.90;;;9.20;99.90;;;;;;5014926;28;21217;-67
2021/04/19 03:14:58;;;;;;;1999.90;999.90;;;9.30;99.90;;;;;;5015001;28;20403;-66
2021/04/19 03:17:25;;;;;;;1999.90;999.90;;;9.30;99.90;;;;;;5014909;28;20835;-66
2021/04/19 03:20:20;;;;;;;1999.90;999.90;;;9.30;99.90;;;;;;5014872;28;20770;-67
2021/04/19 03:22:48;;;;;;;1999.90;999.90;;;9.30;99.90;;;;;;5014852;28;20461;-67
2021/04/19 03:25:15;;;;;;;1999.90;999.90;;;9.30;99.90;;;;;;5014662;28;20409;-67
2021/04/19 03:27:43;;;;;;;1999.90;999.90;;;9.40;99.90;;;;;;5014599;28;20464;-66
2021/04/19 03:30:10;;;;;;;1999.90;999.90;;;9.40;99.90;;;;;;5017065;28;20414;-67
2021/04/19 03:32:41;;;;;;;1999.90;999.90;;;9.30;99.90;;;;;;5014942;28;20771;-68
2021/04/19 03:35:11;;;;;;;1999.90;999.90;;;9.30;99.90;;;;;;5017537;28;20442;-68
2021/04/19 03:37:39;;;;;;;1999.90;999.90;;;9.30;99.90;;;;;;5014918;28;20431;-67
2021/04/19 03:40:27;;;;;;;1999.90;999.90;;;9.40;99.90;;;;;;5015031;28;20816;-68
2021/04/19 03:42:59;;;;;;;1999.90;999.90;;;9.40;99.90;;;;;;5016455;28;20489;-68
2021/04/19 03:45:26;;;;;;;1999.90;999.90;;;9.20;99.90;;;;;;5014314;28;20402;-66
2021/04/19 03:47:56;;;;;;;1999.90;999.90;;;9.20;99.90;;;;;;5014205;28;20561;-66
2021/04/19 03:50:24;;;;;;;1999.90;999.90;;;9.20;99.90;;;;;;5014216;28;20461;-66
2021/04/19 03:52:53;;;;;;;1999.90;999.90;;;9.00;99.90;;;;;;5015383;28;20431;-66
2021/04/19 03:55:19;;;;;;;1999.90;999.90;;;8.70;99.90;;;;;;5013918;28;20397;-67
2021/04/19 03:57:49;;;;;;;1999.90;999.90;;;8.40;99.90;;;;;;5014324;28;20459;-66
2021/04/19 04:00:21;;;;;;;1999.90;999.90;;;8.20;99.90;;;;;;5014401;28;20471;-67
2021/04/19 04:02:53;;;;;;;1999.90;999.90;;;8.10;99.90;;;;;;5014669;28;20432;-66
2021/04/19 04:05:20;;;;;;;1999.90;999.90;;;8.10;99.90;;;;;;5013713;28;20459;-67
2021/04/19 04:07:48;;;;;;;1999.90;999.90;;;8.10;99.90;;;;;;5013700;28;21007;-66
2021/04/19 04:10:15;;;;;;;1999.90;999.90;;;8.00;99.90;;;;;;5012641;28;20473;-66
2021/04/19 04:12:41;;;;;;;1999.90;999.90;;;8.00;99.90;;;;;;5013769;28;20416;-66
2021/04/19 04:15:07;;;;;;;1999.90;999.90;;;7.90;99.90;;;;;;5013461;28;20552;-67
2021/04/19 04:17:32;;;;;;;1999.90;999.90;;;7.90;99.90;;;;;;5013599;28;20436;-67
2021/04/19 04:19:58;;;;;;;1999.90;999.90;;;7.90;99.90;;;;;;5014957;28;20462;-66
2021/04/19 04:22:24;;;;;;;1999.90;999.90;;;7.90;99.90;;;;;;5013541;28;20175;-67
2021/04/19 04:24:51;;;;;;;1999.90;999.90;;;8.00;99.90;;;;;;5013276;28;20182;-66
2021/04/19 04:27:17;;;;;;;1999.90;999.90;;;8.00;99.90;;;;;;5013267;28;20252;-66
2021/04/19 04:29:44;;;;;;;1999.90;999.90;;;8.00;99.90;;;;;;5013427;28;20436;-67
2021/04/19 04:32:09;;;;;;;1999.90;999.90;;;8.00;99.90;;;;;;5013545;28;20412;-66
2021/04/19 04:34:35;;;;;;;1999.90;999.90;;;7.90;99.90;;;;;;5013326;28;20927;-66
2021/04/19 04:37:01;;;;;;;1999.90;999.90;;;8.00;99.90;;;;;;5013313;28;20198;-67
2021/04/19 04:39:27;;;;;;;1999.90;999.90;;;8.00;99.90;;;;;;5013266;28;20183;-66
2021/04/19 04:41:53;;;;;;;1999.90;999.90;;;8.00;99.90;;;;;;5013253;28;20413;-66
2021/04/19 04:44:28;;;;;;;1999.90;999.90;;;8.00;99.90;;;;;;5013185;28;20400;-66
2021/04/19 04:47:35;;;;;;;1999.90;999.90;;;8.00;99.90;;;;;;5012803;28;20217;-67
2021/04/19 04:50:14;;;;;;;1999.90;999.90;;;8.00;99.90;;;;;;4973427;28;20410;-66
2021/04/19 04:53:06;;;;;;;1999.90;999.90;;;7.90;99.90;;;;;;5008154;28;20422;-67
2021/04/19 04:55:34;;;;;;;1999.90;999.90;;;7.90;99.90;;;;;;5012883;28;20784;-66
2021/04/19 04:58:01;;;;;;;1999.90;999.90;;;8.00;99.90;;;;;;5015101;28;20448;-67
2021/04/19 05:00:29;;;;;;;1999.90;999.90;;;8.00;99.90;;;;;;5014528;28;20400;-67
2021/04/19 05:02:56;;;;;;;1999.90;999.90;;;8.00;99.90;;;;;;5016231;28;20405;-66
2021/04/19 05:05:21;;;;;;;1999.90;999.90;;;8.00;99.90;;;;;;5013453;28;20409;-68
2021/04/19 05:07:48;;;;;;;1999.90;999.90;;;8.00;99.90;;;;;;5012630;28;20444;-66
2021/04/19 05:10:14;;;;;;;1999.90;999.90;;;8.00;99.90;;;;;;5012753;28;20158;-66
2021/04/19 05:12:41;;;;;;;1999.90;999.90;;;8.00;99.90;;;;;;5013129;28;20400;-67
2021/04/19 05:15:10;;;;;;;1999.90;999.90;;;8.00;99.90;;;;;;5014495;28;20404;-67
2021/04/19 05:17:46;;;;;;;1999.90;999.90;;;8.00;99.90;;;;;;5015933;28;20448;-69
2021/04/19 05:20:14;;;;;;;1999.90;999.90;;;8.00;99.90;;;;;;5015839;28;20411;-67
2021/04/19 05:22:41;;;;;;;1999.90;999.90;;;8.00;99.90;;;;;;5015222;28;20416;-67
2021/04/19 05:25:08;;;;;;;1999.90;999.90;;;8.00;99.90;;;;;;5012917;28;20420;-67
2021/04/19 05:27:34;;;;;;;1999.90;999.90;;;8.10;99.90;;;;;;5012720;28;20830;-68
2021/04/19 05:30:00;;;;;;;1999.90;999.90;;;8.00;99.90;;;;;;5014527;28;20434;-67
2021/04/19 05:32:27;;;;;;;1999.90;999.90;;;7.90;99.90;;;;;;5013114;28;20166;-67
2021/04/19 05:34:55;;;;;;;1999.90;999.90;;;7.90;99.90;;;;;;5012258;28;20404;-68
2021/04/19 05:37:21;;;;;;;1999.90;999.90;;;7.90;99.90;;;;;;5012317;28;20548;-67
2021/04/19 05:39:47;;;;;;;1999.90;999.90;;;8.00;99.90;;;;;;5012261;28;20505;-67
2021/04/19 05:42:16;;;;;;;1999.90;999.90;;;8.10;99.90;;;;;;5012293;28;20438;-66
2021/04/19 05:44:43;;;;;;;1999.90;999.90;;;8.10;99.90;;;;;;5012124;28;20173;-67
2021/04/19 05:47:09;;;;;;;1999.90;999.90;;;8.20;99.90;;;;;;5012009;28;20432;-67
2021/04/19 05:49:34;;;;;;;1999.90;999.90;;;8.20;99.90;;;;;;5012246;28;20487;-66
2021/04/19 05:52:03;;;;;;;1999.90;999.90;;;8.30;99.90;;;;;;5012277;28;20434;-67
2021/04/19 05:54:30;;;;;;;1999.90;999.90;;;8.50;99.90;;;;;;5012032;28;20175;-68
2021/04/19 05:57:19;;;;;;;1999.90;999.90;;;8.60;99.90;;;;;;5011807;28;20499;-67
2021/04/19 06:00:02;;;;;;;1999.90;999.90;;;8.70;99.90;;;;;;5013473;28;20464;-68
2021/04/19 06:03:05;;;;;;;1999.90;999.90;;;8.90;99.90;;;;;;5014769;28;20793;-66
2021/04/19 06:05:42;;;;;;;1999.90;999.90;;;9.00;99.90;;;;;;5011961;28;20391;-66
2021/04/19 06:08:12;;;;;;;1999.90;999.90;;;9.00;99.90;;;;;;5015503;28;20974;-66
2021/04/19 06:10:49;;;;;;;1999.90;999.90;;;9.00;99.90;;;;;;5015685;28;20423;-67
2021/04/19 06:13:17;;;;;;;1999.90;999.90;;;8.90;99.90;;;;;;5014728;28;20395;-67
2021/04/19 06:15:45;;;;;;;1999.90;999.90;;;8.70;99.90;;;;;;5011773;28;20411;-67
2021/04/19 06:18:12;;;;;;;1999.90;999.90;;;8.50;99.90;;;;;;5011859;28;20460;-67
2021/04/19 06:20:38;;;;;;;1999.90;999.90;;;8.30;99.90;;;;;;5012068;28;20445;-66
2021/04/19 06:23:05;;;;;;;1999.90;999.90;;;8.20;99.90;;;;;;5014397;28;20448;-68
2021/04/19 06:25:31;;;;;;;1999.90;999.90;;;8.00;99.90;;;;;;5013380;28;20491;-66
2021/04/19 06:28:05;;;;;;;1999.90;999.90;;;7.90;99.90;;;;;;5011687;28;20456;-68
2021/04/19 06:30:40;;;;;;;1999.90;999.90;;;7.90;99.90;;;;;;5011790;28;20429;-67
2021/04/19 06:33:08;;;;;;;1999.90;999.90;;;7.70;99.90;;;;;;5013164;28;20461;-66
2021/04/19 06:35:33;;;;;;;1999.90;999.90;;;7.60;99.90;;;;;;5016602;28;20436;-67
2021/04/19 06:37:59;;;;;;;1999.90;999.90;;;7.60;99.90;;;;;;5017314;28;20443;-67
2021/04/19 06:40:26;;;;;;;1999.90;999.90;;;7.60;99.90;;;;;;5015420;28;20172;-68
2021/04/19 06:42:57;;;;;;;1999.90;999.90;;;7.50;99.90;;;;;;5015642;28;20177;-67
2021/04/19 06:45:23;;;;;;;1999.90;999.90;;;7.50;99.90;;;;;;5015167;28;20404;-67
2021/04/19 06:47:50;;;;;;;1999.90;999.90;;;7.50;99.90;;;;;;5016570;28;20522;-67
2021/04/19 06:50:16;;;;;;;1999.90;999.90;;;7.50;99.90;;;;;;5016468;28;20415;-67
2021/04/19 06:52:48;;;;;;;1999.90;999.90;;;7.50;99.90;;;;;;5015234;28;20905;-67
2021/04/19 06:55:18;;;;;;;1999.90;999.90;;;7.60;99.90;;;;;;5015006;28;20170;-67
2021/04/19 06:57:56;;;;;;;1999.90;999.90;;;7.60;99.90;;;;;;5017037;28;20543;-67
2021/04/19 07:00:23;;;;;;;1999.90;999.90;;;7.70;99.90;;;;;;5015197;28;20409;-66
2021/04/19 07:02:53;;;;;;;1999.90;999.90;;;7.90;99.90;;;;;;5015035;28;20408;-66
2021/04/19 07:05:21;;;;;;;1999.90;999.90;;;8.00;99.90;;;;;;5015859;28;20497;-68
2021/04/19 07:07:57;;;;;;;1999.90;999.90;;;8.10;99.90;;;;;;5017023;28;20467;-68
2021/04/19 07:10:23;;;;;;;1999.90;999.90;;;8.20;99.90;;;;;;5015941;28;20459;-66
2021/04/19 07:12:49;;;;;;;1999.90;999.90;;;8.20;99.90;;;;;;5015210;28;20805;-67
2021/04/19 07:15:18;;;;;;;1999.90;999.90;;;8.20;99.90;;;;;;5016834;28;20188;-68
2021/04/19 07:17:45;;;;;;;1999.90;999.90;;;8.00;99.90;;;;;;5015843;28;20933;-66
2021/04/19 07:20:11;;;;;;;1999.90;999.90;;;7.70;99.90;;;;;;5014871;28;20770;-66
2021/04/19 07:22:38;;;;;;;1999.90;999.90;;;7.70;99.90;;;;;;5014626;28;20415;-66
2021/04/19 07:25:06;;;;;;;1999.90;999.90;;;7.60;99.90;;;;;;5014604;28;20925;-66
2021/04/19 07:27:32;;;;;;;1999.90;999.90;;;7.50;99.90;;;;;;5014439;28;20487;-66
2021/04/19 07:29:57;;;;;;;1999.90;999.90;;;7.50;99.90;;;;;;5014685;28;20491;-66
2021/04/19 07:32:37;;;;;;;1999.90;999.90;;;7.40;99.90;;;;;;5014793;28;20487;-67
2021/04/19 07:35:05;;;;;;;1999.90;999.90;;;7.30;99.90;;;;;;5015331;28;20532;-69
2021/04/19 07:37:32;;;;;;;1999.90;999.90;;;7.30;99.90;;;;;;5016166;28;20428;-67
2021/04/19 07:39:58;;;;;;;1999.90;999.90;;;7.20;99.90;;;;;;5016859;28;20408;-67
2021/04/19 07:42:24;;;;;;;1999.90;999.90;;;7.20;99.90;;;;;;5015017;28;20412;-66
2021/04/19 07:44:52;;;;;;;1999.90;999.90;;;7.20;99.90;;;;;;5014066;28;20985;-66
2021/04/19 07:47:32;;;;;;;1999.90;999.90;;;7.30;99.90;;;;;;5014130;28;20193;-66
2021/04/19 07:50:03;;;;;;;1999.90;999.90;;;7.30;99.90;;;;;;5014199;28;20901;-66
2021/04/19 07:52:30;;;;;;;1999.90;999.90;;;7.30;99.90;;;;;;5019678;28;20435;-67
2021/04/19 07:55:03;;;;;;;1999.90;999.90;;;7.40;99.90;;;;;;5018048;28;20416;-67
2021/04/19 07:57:28;;;;;;;1999.90;999.90;;;7.40;99.90;;;;;;5013811;28;20454;-67
2021/04/19 07:59:54;;;;;;;1999.90;999.90;;;7.40;99.90;;;;;;5014118;28;20404;-67
2021/04/19 08:02:21;;;;;;;1999.90;999.90;;;7.40;99.90;;;;;;5014002;28;20564;-66
2021/04/19 08:04:51;;;;;;;1999.90;999.90;;;7.50;99.90;;;;;;5011656;28;20185;-67
2021/04/19 08:07:22;;;;;;;1999.90;999.90;;;7.60;99.90;;;;;;5012145;28;20420;-68
2021/04/19 08:10:00;;;;;;;1999.90;999.90;;;7.70;99.90;;;;;;5012764;28;20425;-68
2021/04/19 08:12:40;;;;;;;1999.90;999.90;;;7.80;99.90;;;;;;5012515;28;20404;-68
2021/04/19 08:15:08;;;;;;;1999.90;999.90;;;7.90;99.90;;;;;;5012321;28;20407;-68
2021/04/19 08:17:34;;;;;;;1999.90;999.90;;;8.00;99.90;;;;;;5012803;28;20434;-67
2021/04/19 08:20:08;;;;;;;1999.90;999.90;;;8.20;99.90;;;;;;5012453;28;20406;-67
2021/04/19 08:22:34;;;;;;;1999.90;999.90;;;8.30;99.90;;;;;;5012498;28;20436;-67
2021/04/19 08:25:20;;;;;;;1999.90;999.90;;;8.40;99.90;;;;;;5012408;28;20408;-67
2021/04/19 08:28:03;;;;;;;1999.90;999.90;;;8.60;99.90;;;;;;5012499;28;20482;-68
2021/04/19 08:30:29;;;;;;;1999.90;999.90;;;8.70;99.90;;;;;;5012695;28;20400;-67
2021/04/19 08:32:57;;;;;;;1999.90;999.90;;;8.70;99.90;;;;;;5012691;28;20406;-67
2021/04/19 08:35:25;;;;;;;1999.90;999.90;;;8.80;99.90;;;;;;5012219;28;20199;-67
2021/04/19 08:37:52;;;;;;;1999.90;999.90;;;8.80;99.90;;;;;;5012900;28;20485;-67
2021/04/19 08:40:19;;;;;;;1999.90;999.90;;;8.80;99.90;;;;;;5012311;28;20430;-67
2021/04/19 08:42:45;;;;;;;1999.90;999.90;;;8.80;99.90;;;;;;5012811;28;20891;-67
2021/04/19 08:45:11;;;;;;;1999.90;999.90;;;8.90;99.90;;;;;;5012647;28;20911;-66
2021/04/19 08:47:38;;;;;;;1999.90;999.90;;;8.90;99.90;;;;;;5012460;28;20457;-66
2021/04/19 08:50:07;;;;;;;1999.90;999.90;;;8.90;99.90;;;;;;5012975;28;20402;-67
2021/04/19 08:52:34;;;;;;;1999.90;999.90;;;8.80;99.90;;;;;;5012919;28;20413;-66
2021/04/19 08:54:59;;;;;;;1999.90;999.90;;;8.80;99.90;;;;;;5011671;28;20405;-67
2021/04/19 08:57:25;;;;;;;1999.90;999.90;;;8.80;99.90;;;;;;5012077;28;20448;-66
2021/04/19 08:59:52;;;;;;;1999.90;999.90;;;8.80;99.90;;;;;;5012378;28;20170;-67
2021/04/19 09:02:19;;;;;;;1999.90;999.90;;;8.70;99.90;;;;;;5012229;28;20177;-67
2021/04/19 09:05:05;;;;;;;1999.90;999.90;;;8.80;99.90;;;;;;5012504;28;20414;-66
2021/04/19 09:07:32;;;;;;;1999.90;999.90;;;8.90;99.90;;;;;;5012574;28;20453;-66
2021/04/19 09:09:57;;;;;;;1999.90;999.90;;;9.00;99.90;;;;;;5012693;28;20408;-67
2021/04/19 09:12:26;;;;;;;1999.90;999.90;;;9.00;99.90;;;;;;5012673;28;21075;-67
2021/04/19 09:15:15;;;;;;;1999.90;999.90;;;9.10;99.90;;;;;;5012297;28;20651;-66
2021/04/19 09:17:42;;;;;;;1999.90;999.90;;;9.20;99.90;;;;;;5012379;28;20432;-67
2021/04/19 09:20:12;;;;;;;1999.90;999.90;;;9.20;99.90;;;;;;5012268;28;20466;-67
2021/04/19 09:22:39;;;;;;;1999.90;999.90;;;9.30;99.90;;;;;;5012246;28;20405;-66
2021/04/19 09:25:14;;;;;;;1999.90;999.90;;;9.30;99.90;;;;;;5012261;28;20462;-67
2021/04/19 09:27:42;;;;;;;1999.90;999.90;;;9.30;99.90;;;;;;5012590;28;20461;-66
2021/04/19 09:30:26;;;;;;;1999.90;999.90;;;9.30;99.90;;;;;;5012000;28;20397;-66
2021/04/19 09:33:04;;;;;;;1999.90;999.90;;;9.30;99.90;;;;;;5012070;28;20769;-65
2021/04/19 09:35:39;;;;;;;1999.90;999.90;;;9.40;99.90;;;;;;5011760;28;20397;-66
2021/04/19 09:38:15;;;;;;;1999.90;999.90;;;9.60;99.90;;;;;;5012076;28;20430;-66
2021/04/19 09:40:55;;;;;;;1999.90;999.90;;;9.70;99.90;;;;;;5011977;28;20990;-68
2021/04/19 09:43:33;;;;;;;1999.90;999.90;;;9.80;99.90;;;;;;5012482;28;20457;-69
2021/04/19 09:46:04;;;;;;;1999.90;999.90;;;9.80;99.90;;;;;;5012285;28;20446;-69
2021/04/19 09:48:30;;;;;;;1999.90;999.90;;;9.80;99.90;;;;;;5012276;28;20461;-69
2021/04/19 09:51:02;;;;;;;1999.90;999.90;;;9.90;99.90;;;;;;5011779;28;20498;-67
2021/04/19 09:53:30;;;;;;;1999.90;999.90;;;9.90;99.90;;;;;;5011842;28;20433;-66
2021/04/19 09:55:57;;;;;;;1999.90;999.90;;;9.90;99.90;;;;;;5011754;28;20404;-67
2021/04/19 09:58:23;;;;;;;1999.90;999.90;;;9.90;99.90;;;;;;5107708;22;20585;-66
2021/04/19 10:00:59;;;;;;;1999.90;999.90;;;9.90;99.90;;;;;;5072331;28;20408;-67
2021/04/19 10:03:26;;;;;;;1999.90;999.90;;;9.90;99.90;;;;;;5071636;28;20433;-67
2021/04/19 10:05:58;;;;;;;1999.90;999.90;;;9.90;99.90;;;;;;5068262;28;20825;-68
2021/04/19 10:08:25;;;;;;;1999.90;999.90;;;10.00;99.90;;;;;;5073335;28;20497;-67
2021/04/19 10:10:53;;;;;;;1999.90;999.90;;;10.00;99.90;;;;;;5072663;28;20408;-65
2021/04/19 10:13:37;;;;;;;1999.90;999.90;;;10.20;99.90;;;;;;5074657;28;20455;-66
2021/04/19 10:16:05;;;;;;;1999.90;999.90;;;10.20;99.90;;;;;;5074161;28;20416;-66
2021/04/19 10:18:32;;;;;;;1999.90;999.90;;;10.30;99.90;;;;;;5073522;28;20433;-67
2021/04/19 10:20:58;;;;;;;1999.90;999.90;;;10.40;99.90;;;;;;5073329;28;20842;-65
2021/04/19 10:23:35;;;;;;;1999.90;999.90;;;10.50;99.90;;;;;;5074411;28;20403;-66
2021/04/19 10:26:01;;;;;;;1999.90;999.90;;;10.60;99.90;;;;;;5073035;28;20412;-67
2021/04/19 10:28:40;;;;;;;1999.90;999.90;;;10.70;99.90;;;;;;5073559;28;20530;-67
2021/04/19 10:31:15;;;;;;;1999.90;999.90;;;10.80;99.90;;;;;;5073165;28;20393;-67
2021/04/19 10:33:46;;;;;;;1999.90;999.90;;;10.80;99.90;;;;;;5073043;28;20392;-66
2021/04/19 10:36:26;;;;;;;1999.90;999.90;;;11.10;99.90;;;;;;5072870;28;20455;-66
2021/04/19 10:38:57;;;;;;;1999.90;999.90;;;11.20;99.90;;;;;;5073503;28;20412;-67
2021/04/19 10:41:34;;;;;;;1999.90;999.90;;;11.30;99.90;;;;;;5072371;28;20448;-66
2021/04/19 10:44:00;;;;;;;1999.90;999.90;;;11.40;99.90;;;;;;5073189;28;20809;-66
2021/04/19 10:46:31;;;;;;;1999.90;999.90;;;11.60;99.90;;;;;;5072748;28;20406;-66
2021/04/19 10:49:00;;;;;;;1999.90;999.90;;;11.70;99.90;;;;;;5072620;28;20447;-67
2021/04/19 10:51:31;;;;;;;1999.90;999.90;;;11.70;99.90;;;;;;5072939;28;20415;-66
2021/04/19 10:53:59;;;;;;;1999.90;999.90;;;11.80;99.90;;;;;;5073223;28;20397;-66
2021/04/19 10:56:26;;;;;;;1999.90;999.90;;;11.80;99.90;;;;;;5072220;28;20452;-67
2021/04/19 10:58:58;;;;;;;1999.90;999.90;;;11.90;99.90;;;;;;5072918;28;20505;-66
2021/04/19 11:01:30;;;;;;;1999.90;999.90;;;12.00;99.90;;;;;;5072048;28;20417;-67
2021/04/19 11:03:58;;;;;;;1999.90;999.90;;;12.20;99.90;;;;;;5072555;28;20818;-66
2021/04/19 11:06:24;;;;;;;1999.90;999.90;;;12.20;99.90;;;;;;5072332;28;20413;-67
2021/04/19 11:08:58;;;;;;;1999.90;999.90;;;12.30;99.90;;;;;;5072674;28;20452;-67
2021/04/19 11:11:34;;;;;;;1999.90;999.90;;;12.50;99.90;;;;;;5071847;28;20506;-67
2021/04/19 11:14:07;;;;;;;1999.90;999.90;;;12.80;99.90;;;;;;5072652;28;20483;-67
2021/04/19 11:16:32;;;;;;;1999.90;999.90;;;13.00;99.90;;;;;;5071999;28;20412;-66
2021/04/19 11:18:58;;;;;;;1999.90;999.90;;;12.70;99.90;;;;;;5071617;28;20922;-67
2021/04/19 11:21:33;;;;;;;1999.90;999.90;;;12.50;99.90;;;;;;5072013;28;20432;-66
2021/04/19 11:24:14;;;;;;;1999.90;999.90;;;12.50;99.90;;;;;;5072442;28;20257;-66
2021/04/19 11:26:40;;;;;;;1999.90;999.90;;;12.60;99.90;;;;;;5071608;28;20417;-66
2021/04/19 11:29:06;;;;;;;1999.90;999.90;;;12.50;99.90;;;;;;5072608;28;20459;-67
2021/04/19 11:31:44;;;;;;;1999.90;999.90;;;12.50;99.90;;;;;;5072713;28;20428;-66
2021/04/19 11:34:12;;;;;;;1999.90;999.90;;;12.30;99.90;;;;;;5071834;28;20409;-65
2021/04/19 11:36:40;;;;;;;1999.90;999.90;;;12.40;99.90;;;;;;5071821;28;20409;-65
2021/04/19 11:39:12;;;;;;;1999.90;999.90;;;12.40;99.90;;;;;;5072319;28;20412;-68
2021/04/19 11:41:38;;;;;;;1999.90;999.90;;;12.50;99.90;;;;;;5071241;28;20410;-67
2021/04/19 11:44:03;;;;;;;1999.90;999.90;;;12.90;99.90;;;;;;5072133;28;20839;-66
2021/04/19 11:46:29;;;;;;;1999.90;999.90;;;12.80;99.90;;;;;;5071535;28;20221;-66
2021/04/19 11:48:55;;;;;;;1999.90;999.90;;;12.90;99.90;;;;;;5071218;28;20199;-66
2021/04/19 11:51:21;;;;;;;1999.90;999.90;;;13.40;99.90;;;;;;5072199;28;20560;-66
2021/04/19 11:53:48;;;;;;;1999.90;999.90;;;14.00;99.90;;;;;;5072165;28;20403;-66
2021/04/19 11:56:16;;;;;;;1999.90;999.90;;;14.60;99.90;;;;;;5071201;28;20455;-66
2021/04/19 11:58:44;;;;;;;1999.90;999.90;;;15.20;99.90;;;;;;5071737;28;20445;-66
2021/04/19 12:01:11;;;;;;;1999.90;999.90;;;15.50;99.90;;;;;;5071109;28;20423;-67
2021/04/19 12:03:38;;;;;;;1999.90;999.90;;;15.70;99.90;;;;;;5071272;28;20461;-66
2021/04/19 12:06:08;;;;;;;1999.90;999.90;;;15.80;99.90;;;;;;5071165;28;20443;-67
2021/04/19 12:08:34;;;;;;;1999.90;999.90;;;16.20;99.90;;;;;;5086779;28;20460;-66
2021/04/19 12:11:01;;;;;;;1999.90;999.90;;;16.50;99.90;;;;;;5086105;28;20417;-68
2021/04/19 12:13:26;;;;;;;1999.90;999.90;;;16.80;99.90;;;;;;5086758;28;20448;-67
2021/04/19 12:15:53;;;;;;;1999.90;999.90;;;17.30;99.90;;;;;;5089101;28;20414;-66
2021/04/19 12:18:20;;;;;;;1999.90;999.90;;;17.50;99.90;;;;;;5089563;28;20194;-67